sensor_id;sensor_type;location;lat;lon;timestamp;P1;durP1;ratioP1;P2;durP2;ratioP2
2474;SDS011;1248;48.694;10.160;2022-10-17T00:00:45;16.50;;;6.10;;
2474;SDS011;1248;48.694;10.160;2022-10-17T00:03:12;11.77;;;5.70;;
2474;SDS011;1248;48.694;10.160;2022-10-17T00:05:40;16.00;;;7.00;;
2474;SDS011;1248;48.694;10.160;2022-10-17T00:08:08;14.40;;;6.10;;
2474;SDS011;1248;48.694;10.160;2022-10-17T00:10:36;14.80;;;7.03;;
2474;SDS011;1248;48.694;10.160;2022-10-17T00:13:03;12.83;;;7.13;;
2474;SDS011;1248;48.694;10.160;2022-10-17T00:15:30;12.83;;;6.40;;
2474;SDS011;1248;48.694;10.160;2022-10-17T00:17:59;20.33;;;7.63;;
2474;SDS011;1248;48.694;10.160;2022-10-17T00:20:26;80.57;;;9.80;;
2474;SDS011;1248;48.694;10.160;2022-10-17T00:22:55;61.20;;;8.73;;
2474;SDS011;1248;48.694;10.160;2022-10-17T00:25:25;40.67;;;8.03;;
2474;SDS011;1248;48.694;10.160;2022-10-17T00:27:52;37.13;;;7.43;;
2474;SDS011;1248;48.694;10.160;2022-10-17T00:30:19;24.87;;;6.90;;
2474;SDS011;1248;48.694;10.160;2022-10-17T00:32:46;38.03;;;8.47;;
2474;SDS011;1248;48.694;10.160;2022-10-17T00:35:15;24.97;;;6.90;;
2474;SDS011;1248;48.694;10.160;2022-10-17T00:37:42;23.70;;;7.43;;
2474;SDS011;1248;48.694;10.160;2022-10-17T00:40:09;23.00;;;6.70;;
2474;SDS011;1248;48.694;10.160;2022-10-17T00:42:37;29.97;;;8.07;;
2474;SDS011;1248;48.694;10.160;2022-10-17T00:45:12;77.90;;;9.27;;
2474;SDS011;1248;48.694;10.160;2022-10-17T00:47:42;79.90;;;10.20;;
2474;SDS011;1248;48.694;10.160;2022-10-17T00:50:12;100.43;;;11.70;;
2474;SDS011;1248;48.694;10.160;2022-10-17T00:52:41;87.07;;;11.13;;
2474;SDS011;1248;48.694;10.160;2022-10-17T00:55:09;83.07;;;9.67;;
2474;SDS011;1248;48.694;10.160;2022-10-17T00:57:38;52.63;;;8.23;;
2474;SDS011;1248;48.694;10.160;2022-10-17T01:00:07;82.20;;;9.73;;
2474;SDS011;1248;48.694;10.160;2022-10-17T01:02:36;40.70;;;6.97;;
2474;SDS011;1248;48.694;10.160;2022-10-17T01:05:04;39.47;;;7.87;;
2474;SDS011;1248;48.694;10.160;2022-10-17T01:07:32;74.60;;;8.60;;
2474;SDS011;1248;48.694;10.160;2022-10-17T01:10:01;45.73;;;7.83;;
2474;SDS011;1248;48.694;10.160;2022-10-17T01:12:30;22.67;;;5.90;;
2474;SDS011;1248;48.694;10.160;2022-10-17T01:15:06;71.27;;;7.80;;
2474;SDS011;1248;48.694;10.160;2022-10-17T01:17:39;74.27;;;8.20;;
2474;SDS011;1248;48.694;10.160;2022-10-17T01:20:29;19.80;;;6.50;;
2474;SDS011;1248;48.694;10.160;2022-10-17T01:23:16;39.97;;;6.50;;
2474;SDS011;1248;48.694;10.160;2022-10-17T01:25:53;21.23;;;6.23;;
2474;SDS011;1248;48.694;10.160;2022-10-17T01:28:27;21.23;;;5.27;;
2474;SDS011;1248;48.694;10.160;2022-10-17T01:31:07;17.33;;;6.07;;
2474;SDS011;1248;48.694;10.160;2022-10-17T01:33:43;16.43;;;5.53;;
2474;SDS011;1248;48.694;10.160;2022-10-17T01:36:15;26.73;;;6.00;;
2474;SDS011;1248;48.694;10.160;2022-10-17T01:38:52;32.10;;;4.87;;
2474;SDS011;1248;48.694;10.160;2022-10-17T01:41:24;11.37;;;4.57;;
2474;SDS011;1248;48.694;10.160;2022-10-17T01:43:58;25.40;;;5.13;;
2474;SDS011;1248;48.694;10.160;2022-10-17T01:46:28;17.70;;;4.90;;
2474;SDS011;1248;48.694;10.160;2022-10-17T01:48:57;31.13;;;6.27;;
2474;SDS011;1248;48.694;10.160;2022-10-17T01:51:27;20.07;;;4.87;;
2474;SDS011;1248;48.694;10.160;2022-10-17T01:53:57;36.47;;;6.40;;
2474;SDS011;1248;48.694;10.160;2022-10-17T01:56:26;45.53;;;6.53;;
2474;SDS011;1248;48.694;10.160;2022-10-17T01:58:56;34.27;;;7.03;;
2474;SDS011;1248;48.694;10.160;2022-10-17T02:01:28;63.43;;;7.90;;
2474;SDS011;1248;48.694;10.160;2022-10-17T02:03:56;22.73;;;5.70;;
2474;SDS011;1248;48.694;10.160;2022-10-17T02:06:24;45.73;;;6.97;;
2474;SDS011;1248;48.694;10.160;2022-10-17T02:08:51;20.17;;;5.80;;
2474;SDS011;1248;48.694;10.160;2022-10-17T02:11:18;11.13;;;4.40;;
2474;SDS011;1248;48.694;10.160;2022-10-17T02:13:50;30.30;;;5.73;;
2474;SDS011;1248;48.694;10.160;2022-10-17T02:16:29;20.47;;;5.17;;
2474;SDS011;1248;48.694;10.160;2022-10-17T02:19:05;25.77;;;6.00;;
2474;SDS011;1248;48.694;10.160;2022-10-17T02:21:37;26.00;;;5.53;;
2474;SDS011;1248;48.694;10.160;2022-10-17T02:24:12;8.20;;;4.63;;
2474;SDS011;1248;48.694;10.160;2022-10-17T02:26:45;40.83;;;5.30;;
2474;SDS011;1248;48.694;10.160;2022-10-17T02:29:17;21.93;;;5.40;;
2474;SDS011;1248;48.694;10.160;2022-10-17T02:31:48;36.73;;;5.53;;
2474;SDS011;1248;48.694;10.160;2022-10-17T02:34:18;19.50;;;4.97;;
2474;SDS011;1248;48.694;10.160;2022-10-17T02:36:48;29.77;;;5.90;;
2474;SDS011;1248;48.694;10.160;2022-10-17T02:39:18;56.87;;;7.20;;
2474;SDS011;1248;48.694;10.160;2022-10-17T02:41:46;15.23;;;5.30;;
2474;SDS011;1248;48.694;10.160;2022-10-17T02:44:14;17.57;;;4.90;;
2474;SDS011;1248;48.694;10.160;2022-10-17T02:46:41;18.83;;;4.80;;
2474;SDS011;1248;48.694;10.160;2022-10-17T02:49:14;15.70;;;6.20;;
2474;SDS011;1248;48.694;10.160;2022-10-17T02:51:43;16.17;;;5.03;;
2474;SDS011;1248;48.694;10.160;2022-10-17T02:54:16;20.67;;;5.60;;
2474;SDS011;1248;48.694;10.160;2022-10-17T02:56:47;42.63;;;6.93;;
2474;SDS011;1248;48.694;10.160;2022-10-17T02:59:16;54.23;;;7.30;;
2474;SDS011;1248;48.694;10.160;2022-10-17T03:01:46;71.73;;;9.37;;
2474;SDS011;1248;48.694;10.160;2022-10-17T03:04:15;29.57;;;5.93;;
2474;SDS011;1248;48.694;10.160;2022-10-17T03:06:42;30.83;;;6.53;;
2474;SDS011;1248;48.694;10.160;2022-10-17T03:09:10;37.23;;;6.40;;
2474;SDS011;1248;48.694;10.160;2022-10-17T03:11:38;34.53;;;6.10;;
2474;SDS011;1248;48.694;10.160;2022-10-17T03:14:05;29.07;;;6.27;;
2474;SDS011;1248;48.694;10.160;2022-10-17T03:16:32;18.03;;;5.27;;
2474;SDS011;1248;48.694;10.160;2022-10-17T03:18:59;26.80;;;6.20;;
2474;SDS011;1248;48.694;10.160;2022-10-17T03:21:27;104.80;;;12.57;;
2474;SDS011;1248;48.694;10.160;2022-10-17T03:23:54;53.57;;;7.33;;
2474;SDS011;1248;48.694;10.160;2022-10-17T03:26:22;64.20;;;8.20;;
2474;SDS011;1248;48.694;10.160;2022-10-17T03:28:49;61.97;;;7.03;;
2474;SDS011;1248;48.694;10.160;2022-10-17T03:31:17;94.37;;;9.77;;
2474;SDS011;1248;48.694;10.160;2022-10-17T03:33:44;46.83;;;6.37;;
2474;SDS011;1248;48.694;10.160;2022-10-17T03:36:11;16.33;;;5.00;;
2474;SDS011;1248;48.694;10.160;2022-10-17T03:38:42;66.97;;;7.47;;
2474;SDS011;1248;48.694;10.160;2022-10-17T03:41:09;59.40;;;7.33;;
2474;SDS011;1248;48.694;10.160;2022-10-17T03:43:36;32.53;;;7.00;;
2474;SDS011;1248;48.694;10.160;2022-10-17T03:46:04;41.70;;;7.10;;
2474;SDS011;1248;48.694;10.160;2022-10-17T03:48:31;59.90;;;7.43;;
2474;SDS011;1248;48.694;10.160;2022-10-17T03:50:59;65.67;;;8.80;;
2474;SDS011;1248;48.694;10.160;2022-10-17T03:53:27;50.73;;;7.87;;
2474;SDS011;1248;48.694;10.160;2022-10-17T03:55:55;17.33;;;5.50;;
2474;SDS011;1248;48.694;10.160;2022-10-17T03:58:23;15.13;;;5.10;;
2474;SDS011;1248;48.694;10.160;2022-10-17T04:00:53;15.83;;;6.17;;
2474;SDS011;1248;48.694;10.160;2022-10-17T04:03:20;23.73;;;5.17;;
2474;SDS011;1248;48.694;10.160;2022-10-17T04:05:48;16.73;;;6.00;;
2474;SDS011;1248;48.694;10.160;2022-10-17T04:08:15;20.70;;;4.97;;
2474;SDS011;1248;48.694;10.160;2022-10-17T04:10:42;5.77;;;4.60;;
2474;SDS011;1248;48.694;10.160;2022-10-17T04:13:10;5.40;;;4.70;;
2474;SDS011;1248;48.694;10.160;2022-10-17T04:15:38;9.37;;;4.63;;
2474;SDS011;1248;48.694;10.160;2022-10-17T04:18:05;5.53;;;4.43;;
2474;SDS011;1248;48.694;10.160;2022-10-17T04:20:33;5.17;;;4.67;;
2474;SDS011;1248;48.694;10.160;2022-10-17T04:23:00;6.03;;;4.40;;
2474;SDS011;1248;48.694;10.160;2022-10-17T04:25:27;7.80;;;4.80;;
2474;SDS011;1248;48.694;10.160;2022-10-17T04:27:54;6.80;;;5.17;;
2474;SDS011;1248;48.694;10.160;2022-10-17T04:30:23;6.83;;;4.33;;
2474;SDS011;1248;48.694;10.160;2022-10-17T04:32:50;12.17;;;4.63;;
2474;SDS011;1248;48.694;10.160;2022-10-17T04:35:18;6.20;;;4.40;;
2474;SDS011;1248;48.694;10.160;2022-10-17T04:37:45;10.50;;;4.73;;
2474;SDS011;1248;48.694;10.160;2022-10-17T04:40:12;5.87;;;4.80;;
2474;SDS011;1248;48.694;10.160;2022-10-17T04:42:39;13.17;;;4.50;;
2474;SDS011;1248;48.694;10.160;2022-10-17T04:45:07;38.03;;;7.33;;
2474;SDS011;1248;48.694;10.160;2022-10-17T04:47:36;30.27;;;6.87;;
2474;SDS011;1248;48.694;10.160;2022-10-17T04:50:03;14.83;;;6.07;;
2474;SDS011;1248;48.694;10.160;2022-10-17T04:52:32;9.60;;;4.87;;
2474;SDS011;1248;48.694;10.160;2022-10-17T04:55:02;7.10;;;4.57;;
2474;SDS011;1248;48.694;10.160;2022-10-17T04:57:29;3.53;;;3.23;;
2474;SDS011;1248;48.694;10.160;2022-10-17T04:59:56;9.30;;;4.13;;
2474;SDS011;1248;48.694;10.160;2022-10-17T05:02:23;9.93;;;4.50;;
2474;SDS011;1248;48.694;10.160;2022-10-17T05:04:52;7.77;;;4.60;;
2474;SDS011;1248;48.694;10.160;2022-10-17T05:07:19;7.23;;;4.40;;
2474;SDS011;1248;48.694;10.160;2022-10-17T05:09:46;8.20;;;4.90;;
2474;SDS011;1248;48.694;10.160;2022-10-17T05:12:13;6.03;;;4.47;;
2474;SDS011;1248;48.694;10.160;2022-10-17T05:14:40;7.63;;;5.10;;
2474;SDS011;1248;48.694;10.160;2022-10-17T05:17:07;9.23;;;4.40;;
2474;SDS011;1248;48.694;10.160;2022-10-17T05:19:34;13.90;;;4.87;;
2474;SDS011;1248;48.694;10.160;2022-10-17T05:22:02;6.20;;;3.90;;
2474;SDS011;1248;48.694;10.160;2022-10-17T05:24:30;8.00;;;4.23;;
2474;SDS011;1248;48.694;10.160;2022-10-17T05:26:57;8.13;;;4.60;;
2474;SDS011;1248;48.694;10.160;2022-10-17T05:29:24;5.47;;;3.97;;
2474;SDS011;1248;48.694;10.160;2022-10-17T05:31:51;8.93;;;3.83;;
2474;SDS011;1248;48.694;10.160;2022-10-17T05:34:18;8.63;;;4.10;;
2474;SDS011;1248;48.694;10.160;2022-10-17T05:36:45;5.30;;;3.73;;
2474;SDS011;1248;48.694;10.160;2022-10-17T05:39:13;7.73;;;4.67;;
2474;SDS011;1248;48.694;10.160;2022-10-17T05:41:44;6.03;;;4.40;;
2474;SDS011;1248;48.694;10.160;2022-10-17T05:44:11;13.33;;;4.30;;
2474;SDS011;1248;48.694;10.160;2022-10-17T05:46:38;6.10;;;4.07;;
2474;SDS011;1248;48.694;10.160;2022-10-17T05:49:05;9.97;;;3.80;;
2474;SDS011;1248;48.694;10.160;2022-10-17T05:51:32;7.30;;;4.80;;
2474;SDS011;1248;48.694;10.160;2022-10-17T05:53:59;8.90;;;4.50;;
2474;SDS011;1248;48.694;10.160;2022-10-17T05:56:28;8.13;;;5.07;;
2474;SDS011;1248;48.694;10.160;2022-10-17T05:58:55;8.27;;;4.20;;
2474;SDS011;1248;48.694;10.160;2022-10-17T06:01:22;9.97;;;4.50;;
2474;SDS011;1248;48.694;10.160;2022-10-17T06:03:49;10.80;;;4.50;;
2474;SDS011;1248;48.694;10.160;2022-10-17T06:06:17;5.97;;;4.93;;
2474;SDS011;1248;48.694;10.160;2022-10-17T06:08:44;4.50;;;3.90;;
2474;SDS011;1248;48.694;10.160;2022-10-17T06:11:12;8.63;;;4.50;;
2474;SDS011;1248;48.694;10.160;2022-10-17T06:13:40;9.30;;;4.63;;
2474;SDS011;1248;48.694;10.160;2022-10-17T06:16:07;11.13;;;4.97;;
2474;SDS011;1248;48.694;10.160;2022-10-17T06:18:34;8.70;;;4.60;;
2474;SDS011;1248;48.694;10.160;2022-10-17T06:21:02;13.80;;;4.87;;
2474;SDS011;1248;48.694;10.160;2022-10-17T06:23:29;11.43;;;5.20;;
2474;SDS011;1248;48.694;10.160;2022-10-17T06:25:57;9.30;;;5.03;;
2474;SDS011;1248;48.694;10.160;2022-10-17T06:28:25;13.40;;;4.90;;
2474;SDS011;1248;48.694;10.160;2022-10-17T06:30:53;6.87;;;4.90;;
2474;SDS011;1248;48.694;10.160;2022-10-17T06:33:20;9.50;;;5.70;;
2474;SDS011;1248;48.694;10.160;2022-10-17T06:35:50;7.70;;;5.30;;
2474;SDS011;1248;48.694;10.160;2022-10-17T06:38:18;9.53;;;6.17;;
2474;SDS011;1248;48.694;10.160;2022-10-17T06:40:45;9.43;;;5.50;;
2474;SDS011;1248;48.694;10.160;2022-10-17T06:43:12;11.10;;;6.77;;
2474;SDS011;1248;48.694;10.160;2022-10-17T06:45:39;7.00;;;4.97;;
2474;SDS011;1248;48.694;10.160;2022-10-17T06:48:08;5.23;;;4.70;;
2474;SDS011;1248;48.694;10.160;2022-10-17T06:50:35;7.90;;;4.83;;
2474;SDS011;1248;48.694;10.160;2022-10-17T06:53:03;5.83;;;5.23;;
2474;SDS011;1248;48.694;10.160;2022-10-17T06:55:30;5.47;;;4.97;;
2474;SDS011;1248;48.694;10.160;2022-10-17T06:57:57;5.70;;;5.07;;
2474;SDS011;1248;48.694;10.160;2022-10-17T07:00:24;15.27;;;5.47;;
2474;SDS011;1248;48.694;10.160;2022-10-17T07:02:52;11.07;;;6.37;;
2474;SDS011;1248;48.694;10.160;2022-10-17T07:05:20;12.50;;;6.10;;
2474;SDS011;1248;48.694;10.160;2022-10-17T07:07:47;12.20;;;5.90;;
2474;SDS011;1248;48.694;10.160;2022-10-17T07:10:14;6.00;;;5.40;;
2474;SDS011;1248;48.694;10.160;2022-10-17T07:12:41;7.40;;;5.90;;
2474;SDS011;1248;48.694;10.160;2022-10-17T07:15:10;7.93;;;5.83;;
2474;SDS011;1248;48.694;10.160;2022-10-17T07:17:37;9.47;;;5.40;;
2474;SDS011;1248;48.694;10.160;2022-10-17T07:20:05;9.20;;;6.10;;
2474;SDS011;1248;48.694;10.160;2022-10-17T07:22:34;7.67;;;5.80;;
2474;SDS011;1248;48.694;10.160;2022-10-17T07:25:01;7.57;;;5.60;;
2474;SDS011;1248;48.694;10.160;2022-10-17T07:27:28;10.37;;;5.50;;
2474;SDS011;1248;48.694;10.160;2022-10-17T07:29:55;6.83;;;4.93;;
2474;SDS011;1248;48.694;10.160;2022-10-17T07:32:22;9.23;;;4.83;;
2474;SDS011;1248;48.694;10.160;2022-10-17T07:34:49;7.77;;;5.07;;
2474;SDS011;1248;48.694;10.160;2022-10-17T07:37:16;7.57;;;4.53;;
2474;SDS011;1248;48.694;10.160;2022-10-17T07:39:45;7.10;;;4.30;;
2474;SDS011;1248;48.694;10.160;2022-10-17T07:42:12;16.60;;;4.47;;
2474;SDS011;1248;48.694;10.160;2022-10-17T07:44:39;8.70;;;3.83;;
2474;SDS011;1248;48.694;10.160;2022-10-17T07:47:06;7.17;;;4.13;;
2474;SDS011;1248;48.694;10.160;2022-10-17T07:49:33;11.50;;;4.47;;
2474;SDS011;1248;48.694;10.160;2022-10-17T07:52:00;6.60;;;4.03;;
2474;SDS011;1248;48.694;10.160;2022-10-17T07:54:27;7.17;;;4.20;;
2474;SDS011;1248;48.694;10.160;2022-10-17T07:56:56;5.53;;;4.00;;
2474;SDS011;1248;48.694;10.160;2022-10-17T07:59:23;13.27;;;4.10;;
2474;SDS011;1248;48.694;10.160;2022-10-17T08:01:50;10.13;;;4.67;;
2474;SDS011;1248;48.694;10.160;2022-10-17T08:04:17;10.47;;;4.30;;
2474;SDS011;1248;48.694;10.160;2022-10-17T08:06:44;6.57;;;4.03;;
2474;SDS011;1248;48.694;10.160;2022-10-17T08:09:11;15.90;;;4.07;;
2474;SDS011;1248;48.694;10.160;2022-10-17T08:11:38;5.87;;;3.83;;
2474;SDS011;1248;48.694;10.160;2022-10-17T08:14:07;10.20;;;3.93;;
2474;SDS011;1248;48.694;10.160;2022-10-17T08:16:34;9.47;;;4.03;;
2474;SDS011;1248;48.694;10.160;2022-10-17T08:19:01;8.30;;;3.63;;
2474;SDS011;1248;48.694;10.160;2022-10-17T08:21:29;10.87;;;4.10;;
2474;SDS011;1248;48.694;10.160;2022-10-17T08:23:56;5.17;;;4.17;;
2474;SDS011;1248;48.694;10.160;2022-10-17T08:26:23;4.23;;;3.70;;
2474;SDS011;1248;48.694;10.160;2022-10-17T08:28:50;6.83;;;3.80;;
2474;SDS011;1248;48.694;10.160;2022-10-17T08:31:19;12.07;;;5.30;;
2474;SDS011;1248;48.694;10.160;2022-10-17T08:33:47;8.37;;;4.83;;
2474;SDS011;1248;48.694;10.160;2022-10-17T08:36:16;6.43;;;4.30;;
2474;SDS011;1248;48.694;10.160;2022-10-17T08:38:45;5.40;;;4.77;;
2474;SDS011;1248;48.694;10.160;2022-10-17T08:41:13;4.80;;;3.80;;
2474;SDS011;1248;48.694;10.160;2022-10-17T08:43:44;7.10;;;4.63;;
2474;SDS011;1248;48.694;10.160;2022-10-17T08:46:16;5.47;;;4.23;;
2474;SDS011;1248;48.694;10.160;2022-10-17T08:48:45;8.77;;;5.10;;
2474;SDS011;1248;48.694;10.160;2022-10-17T08:51:14;5.07;;;4.20;;
2474;SDS011;1248;48.694;10.160;2022-10-17T08:53:45;6.77;;;5.00;;
2474;SDS011;1248;48.694;10.160;2022-10-17T08:56:16;9.00;;;4.80;;
2474;SDS011;1248;48.694;10.160;2022-10-17T08:58:44;8.83;;;4.70;;
2474;SDS011;1248;48.694;10.160;2022-10-17T09:01:13;6.50;;;5.23;;
2474;SDS011;1248;48.694;10.160;2022-10-17T09:03:57;6.83;;;5.40;;
2474;SDS011;1248;48.694;10.160;2022-10-17T09:06:34;6.70;;;4.83;;
2474;SDS011;1248;48.694;10.160;2022-10-17T09:09:07;11.37;;;5.83;;
2474;SDS011;1248;48.694;10.160;2022-10-17T09:11:46;8.03;;;5.57;;
2474;SDS011;1248;48.694;10.160;2022-10-17T09:14:23;6.77;;;4.60;;
2474;SDS011;1248;48.694;10.160;2022-10-17T09:16:59;10.20;;;5.80;;
2474;SDS011;1248;48.694;10.160;2022-10-17T09:19:36;12.27;;;5.27;;
2474;SDS011;1248;48.694;10.160;2022-10-17T09:22:07;7.33;;;5.10;;
2474;SDS011;1248;48.694;10.160;2022-10-17T09:24:37;8.43;;;5.10;;
2474;SDS011;1248;48.694;10.160;2022-10-17T09:27:10;10.73;;;5.27;;
2474;SDS011;1248;48.694;10.160;2022-10-17T09:29:43;15.37;;;4.73;;
2474;SDS011;1248;48.694;10.160;2022-10-17T09:32:12;9.93;;;4.60;;
2474;SDS011;1248;48.694;10.160;2022-10-17T09:34:42;10.80;;;4.97;;
2474;SDS011;1248;48.694;10.160;2022-10-17T09:37:10;12.50;;;5.30;;
2474;SDS011;1248;48.694;10.160;2022-10-17T09:39:39;6.93;;;4.83;;
2474;SDS011;1248;48.694;10.160;2022-10-17T09:42:07;9.57;;;4.90;;
2474;SDS011;1248;48.694;10.160;2022-10-17T09:44:38;7.43;;;5.30;;
2474;SDS011;1248;48.694;10.160;2022-10-17T09:47:12;9.20;;;4.60;;
2474;SDS011;1248;48.694;10.160;2022-10-17T09:49:45;8.37;;;5.30;;
2474;SDS011;1248;48.694;10.160;2022-10-17T09:52:14;6.33;;;4.47;;
2474;SDS011;1248;48.694;10.160;2022-10-17T09:54:44;9.60;;;5.33;;
2474;SDS011;1248;48.694;10.160;2022-10-17T09:57:12;7.37;;;4.40;;
2474;SDS011;1248;48.694;10.160;2022-10-17T09:59:41;9.37;;;5.03;;
2474;SDS011;1248;48.694;10.160;2022-10-17T10:02:17;6.13;;;5.50;;
2474;SDS011;1248;48.694;10.160;2022-10-17T10:04:54;7.90;;;4.67;;
2474;SDS011;1248;48.694;10.160;2022-10-17T10:07:26;9.40;;;4.63;;
2474;SDS011;1248;48.694;10.160;2022-10-17T10:09:55;12.30;;;6.43;;
2474;SDS011;1248;48.694;10.160;2022-10-17T10:12:23;7.73;;;5.60;;
2474;SDS011;1248;48.694;10.160;2022-10-17T10:14:55;10.30;;;5.33;;
2474;SDS011;1248;48.694;10.160;2022-10-17T10:17:33;9.90;;;6.77;;
2474;SDS011;1248;48.694;10.160;2022-10-17T10:20:24;14.17;;;5.27;;
2474;SDS011;1248;48.694;10.160;2022-10-17T10:23:06;9.03;;;6.57;;
2474;SDS011;1248;48.694;10.160;2022-10-17T10:25:53;9.77;;;5.27;;
2474;SDS011;1248;48.694;10.160;2022-10-17T10:28:22;9.13;;;5.00;;
2474;SDS011;1248;48.694;10.160;2022-10-17T10:30:52;9.53;;;4.20;;
2474;SDS011;1248;48.694;10.160;2022-10-17T10:33:20;5.63;;;4.10;;
2474;SDS011;1248;48.694;10.160;2022-10-17T10:35:54;6.20;;;4.20;;
2474;SDS011;1248;48.694;10.160;2022-10-17T10:38:22;8.10;;;4.30;;
2474;SDS011;1248;48.694;10.160;2022-10-17T10:40:50;9.73;;;4.30;;
2474;SDS011;1248;48.694;10.160;2022-10-17T10:43:20;12.43;;;4.00;;
2474;SDS011;1248;48.694;10.160;2022-10-17T10:45:50;5.00;;;3.67;;
2474;SDS011;1248;48.694;10.160;2022-10-17T10:48:19;5.40;;;4.20;;
2474;SDS011;1248;48.694;10.160;2022-10-17T10:50:48;6.03;;;4.60;;
2474;SDS011;1248;48.694;10.160;2022-10-17T10:53:27;3.50;;;3.03;;
2474;SDS011;1248;48.694;10.160;2022-10-17T10:55:58;9.43;;;4.80;;
2474;SDS011;1248;48.694;10.160;2022-10-17T10:58:29;7.07;;;3.90;;
2474;SDS011;1248;48.694;10.160;2022-10-17T11:01:02;7.53;;;3.70;;
2474;SDS011;1248;48.694;10.160;2022-10-17T11:03:32;6.73;;;3.80;;
2474;SDS011;1248;48.694;10.160;2022-10-17T11:06:03;7.87;;;3.50;;
2474;SDS011;1248;48.694;10.160;2022-10-17T11:08:34;5.43;;;3.73;;
2474;SDS011;1248;48.694;10.160;2022-10-17T11:11:06;7.27;;;4.10;;
2474;SDS011;1248;48.694;10.160;2022-10-17T11:13:43;3.83;;;3.37;;
2474;SDS011;1248;48.694;10.160;2022-10-17T11:16:16;5.30;;;3.20;;
2474;SDS011;1248;48.694;10.160;2022-10-17T11:18:48;3.90;;;3.10;;
2474;SDS011;1248;48.694;10.160;2022-10-17T11:21:18;5.40;;;3.00;;
2474;SDS011;1248;48.694;10.160;2022-10-17T11:23:52;7.60;;;3.43;;
2474;SDS011;1248;48.694;10.160;2022-10-17T11:26:25;5.23;;;3.70;;
2474;SDS011;1248;48.694;10.160;2022-10-17T11:28:53;6.53;;;3.90;;
2474;SDS011;1248;48.694;10.160;2022-10-17T11:31:21;9.23;;;3.50;;
2474;SDS011;1248;48.694;10.160;2022-10-17T11:33:51;4.23;;;3.20;;
2474;SDS011;1248;48.694;10.160;2022-10-17T11:36:21;8.27;;;4.80;;
2474;SDS011;1248;48.694;10.160;2022-10-17T11:38:53;7.13;;;4.00;;
2474;SDS011;1248;48.694;10.160;2022-10-17T11:41:23;4.07;;;3.63;;
2474;SDS011;1248;48.694;10.160;2022-10-17T11:43:55;6.90;;;3.80;;
2474;SDS011;1248;48.694;10.160;2022-10-17T11:46:24;5.47;;;3.70;;
2474;SDS011;1248;48.694;10.160;2022-10-17T11:48:57;8.93;;;3.73;;
2474;SDS011;1248;48.694;10.160;2022-10-17T11:51:28;5.57;;;3.93;;
2474;SDS011;1248;48.694;10.160;2022-10-17T11:54:01;4.80;;;4.23;;
2474;SDS011;1248;48.694;10.160;2022-10-17T11:56:31;7.50;;;3.27;;
2474;SDS011;1248;48.694;10.160;2022-10-17T11:59:09;4.90;;;3.70;;
2474;SDS011;1248;48.694;10.160;2022-10-17T12:01:59;4.33;;;3.30;;
2474;SDS011;1248;48.694;10.160;2022-10-17T12:04:34;7.67;;;3.77;;
2474;SDS011;1248;48.694;10.160;2022-10-17T12:07:08;4.63;;;3.50;;
2474;SDS011;1248;48.694;10.160;2022-10-17T12:09:41;5.93;;;4.17;;
2474;SDS011;1248;48.694;10.160;2022-10-17T12:12:10;8.30;;;4.93;;
2474;SDS011;1248;48.694;10.160;2022-10-17T12:14:50;5.53;;;3.40;;
2474;SDS011;1248;48.694;10.160;2022-10-17T12:20:24;5.57;;;3.37;;
2474;SDS011;1248;48.694;10.160;2022-10-17T12:25:50;5.97;;;3.20;;
2474;SDS011;1248;48.694;10.160;2022-10-17T12:28:21;7.90;;;3.90;;
2474;SDS011;1248;48.694;10.160;2022-10-17T12:30:53;8.37;;;4.30;;
2474;SDS011;1248;48.694;10.160;2022-10-17T12:33:24;5.30;;;3.33;;
2474;SDS011;1248;48.694;10.160;2022-10-17T12:42:29;10.57;;;4.50;;
2474;SDS011;1248;48.694;10.160;2022-10-17T12:48:10;8.20;;;4.33;;
2474;SDS011;1248;48.694;10.160;2022-10-17T12:53:27;10.40;;;4.53;;
2474;SDS011;1248;48.694;10.160;2022-10-17T12:56:01;10.27;;;5.90;;
2474;SDS011;1248;48.694;10.160;2022-10-17T12:58:30;7.90;;;4.47;;
2474;SDS011;1248;48.694;10.160;2022-10-17T13:00:57;9.37;;;4.27;;
2474;SDS011;1248;48.694;10.160;2022-10-17T13:03:25;10.90;;;4.20;;
2474;SDS011;1248;48.694;10.160;2022-10-17T13:05:54;9.67;;;4.97;;
2474;SDS011;1248;48.694;10.160;2022-10-17T13:08:25;7.23;;;4.30;;
2474;SDS011;1248;48.694;10.160;2022-10-17T13:10:54;8.20;;;3.87;;
2474;SDS011;1248;48.694;10.160;2022-10-17T13:13:22;15.77;;;4.93;;
2474;SDS011;1248;48.694;10.160;2022-10-17T13:15:53;11.73;;;3.97;;
2474;SDS011;1248;48.694;10.160;2022-10-17T13:18:21;7.57;;;3.80;;
2474;SDS011;1248;48.694;10.160;2022-10-17T13:20:56;11.03;;;3.93;;
2474;SDS011;1248;48.694;10.160;2022-10-17T13:23:28;7.20;;;3.70;;
2474;SDS011;1248;48.694;10.160;2022-10-17T13:26:04;7.10;;;3.80;;
2474;SDS011;1248;48.694;10.160;2022-10-17T13:28:33;3.93;;;2.93;;
2474;SDS011;1248;48.694;10.160;2022-10-17T13:31:02;7.40;;;3.87;;
2474;SDS011;1248;48.694;10.160;2022-10-17T13:33:31;8.10;;;3.90;;
2474;SDS011;1248;48.694;10.160;2022-10-17T13:36:01;7.77;;;3.40;;
2474;SDS011;1248;48.694;10.160;2022-10-17T13:38:29;8.63;;;3.60;;
2474;SDS011;1248;48.694;10.160;2022-10-17T13:40:58;6.40;;;3.27;;
2474;SDS011;1248;48.694;10.160;2022-10-17T13:43:26;10.60;;;4.00;;
2474;SDS011;1248;48.694;10.160;2022-10-17T13:45:54;5.30;;;3.37;;
2474;SDS011;1248;48.694;10.160;2022-10-17T13:48:23;5.10;;;3.10;;
2474;SDS011;1248;48.694;10.160;2022-10-17T13:50:52;7.80;;;2.80;;
2474;SDS011;1248;48.694;10.160;2022-10-17T13:53:23;9.07;;;3.30;;
2474;SDS011;1248;48.694;10.160;2022-10-17T13:55:53;12.97;;;3.40;;
2474;SDS011;1248;48.694;10.160;2022-10-17T13:58:22;6.00;;;2.60;;
2474;SDS011;1248;48.694;10.160;2022-10-17T14:00:49;3.00;;;2.00;;
2474;SDS011;1248;48.694;10.160;2022-10-17T14:03:18;2.80;;;1.90;;
2474;SDS011;1248;48.694;10.160;2022-10-17T14:06:01;8.23;;;1.90;;
2474;SDS011;1248;48.694;10.160;2022-10-17T14:08:31;3.73;;;1.87;;
2474;SDS011;1248;48.694;10.160;2022-10-17T14:10:59;3.83;;;1.83;;
2474;SDS011;1248;48.694;10.160;2022-10-17T14:13:27;4.10;;;1.90;;
2474;SDS011;1248;48.694;10.160;2022-10-17T14:15:56;3.93;;;1.43;;
2474;SDS011;1248;48.694;10.160;2022-10-17T14:18:26;3.10;;;1.60;;
2474;SDS011;1248;48.694;10.160;2022-10-17T14:20:54;4.90;;;1.67;;
2474;SDS011;1248;48.694;10.160;2022-10-17T14:23:29;3.00;;;1.60;;
2474;SDS011;1248;48.694;10.160;2022-10-17T14:26:09;9.50;;;1.67;;
2474;SDS011;1248;48.694;10.160;2022-10-17T14:28:38;4.07;;;1.70;;
2474;SDS011;1248;48.694;10.160;2022-10-17T14:31:09;3.37;;;1.70;;
2474;SDS011;1248;48.694;10.160;2022-10-17T14:33:52;4.53;;;1.80;;
2474;SDS011;1248;48.694;10.160;2022-10-17T14:36:28;2.30;;;1.80;;
2474;SDS011;1248;48.694;10.160;2022-10-17T14:38:58;3.63;;;2.10;;
2474;SDS011;1248;48.694;10.160;2022-10-17T14:41:25;7.80;;;1.90;;
2474;SDS011;1248;48.694;10.160;2022-10-17T14:43:54;5.07;;;2.00;;
2474;SDS011;1248;48.694;10.160;2022-10-17T14:46:23;3.10;;;1.60;;
2474;SDS011;1248;48.694;10.160;2022-10-17T14:48:54;8.80;;;1.93;;
2474;SDS011;1248;48.694;10.160;2022-10-17T14:51:22;8.23;;;1.63;;
2474;SDS011;1248;48.694;10.160;2022-10-17T14:54:01;2.90;;;1.53;;
2474;SDS011;1248;48.694;10.160;2022-10-17T14:56:34;3.47;;;1.20;;
2474;SDS011;1248;48.694;10.160;2022-10-17T14:59:04;5.03;;;1.50;;
2474;SDS011;1248;48.694;10.160;2022-10-17T15:01:32;4.33;;;2.03;;
2474;SDS011;1248;48.694;10.160;2022-10-17T15:04:00;2.73;;;1.60;;
2474;SDS011;1248;48.694;10.160;2022-10-17T15:06:27;4.30;;;1.60;;
2474;SDS011;1248;48.694;10.160;2022-10-17T15:08:56;7.00;;;2.03;;
2474;SDS011;1248;48.694;10.160;2022-10-17T15:11:24;4.40;;;1.50;;
2474;SDS011;1248;48.694;10.160;2022-10-17T15:13:52;4.93;;;1.60;;
2474;SDS011;1248;48.694;10.160;2022-10-17T15:16:19;4.23;;;1.47;;
2474;SDS011;1248;48.694;10.160;2022-10-17T15:18:47;3.50;;;1.37;;
2474;SDS011;1248;48.694;10.160;2022-10-17T15:21:15;3.17;;;1.60;;
2474;SDS011;1248;48.694;10.160;2022-10-17T15:23:43;3.30;;;1.60;;
2474;SDS011;1248;48.694;10.160;2022-10-17T15:26:12;2.77;;;2.07;;
2474;SDS011;1248;48.694;10.160;2022-10-17T15:28:42;6.93;;;1.83;;